^^

Live Weather Display



Station Historical Data
 
Daily Summary for September 21, 2017 Units:  English    Metric   Both
« Previous Day
Next Day »
Daily Weekly Monthly Yearly Custom
  Current: High: Low: Average:
Temperature: 69.3 °F 82.6 °F 61.9 °F 72 °F
Dew Point: 65.9 °F 69.4 °F 60.4 °F 65.1 °F
Humidity: 89 % 96 % 59 % 80 %
Wind Speed: 0.0 mph 0.0 mph 0.0 mph 0 mph
Wind Gust: 0.0 mph 0.0 mph - -
Wind:Calm - - North
Pressure: 30.02 in 30.05 in 29.96 in -
Precipitation: 0.00 in      
Historical Graphs
 
 
Tabular Data for September 21, 2017
Time Temperature Dew Point Pressure Wind Wind Speed Wind Gust Humidity Rainfall Rate (Hourly)
00:02 66.0 °F 63.9 °F 29.97 in Calm     93 % 0.00 in
00:07 66.0 °F 63.9 °F 29.97 in Calm     93 % 0.00 in
00:12 65.8 °F 63.7 °F 29.97 in Calm     93 % 0.00 in
00:17 65.8 °F 63.7 °F 29.97 in Calm     93 % 0.00 in
00:22 65.8 °F 63.7 °F 29.97 in Calm     93 % 0.00 in
00:27 65.7 °F 63.6 °F 29.97 in Calm     93 % 0.00 in
00:37 65.5 °F 63.4 °F 29.97 in Calm     93 % 0.00 in
00:42 65.5 °F 63.4 °F 29.97 in Calm     93 % 0.00 in
00:47 65.5 °F 63.4 °F 29.97 in Calm     93 % 0.00 in
00:52 65.3 °F 63.2 °F 29.97 in Calm     93 % 0.00 in
00:57 65.3 °F 63.2 °F 29.97 in Calm     93 % 0.00 in
01:02 65.3 °F 63.2 °F 29.97 in Calm     93 % 0.00 in
01:12 65.1 °F 63.0 °F 29.98 in Calm     93 % 0.00 in
01:17 65.1 °F 63.0 °F 29.97 in Calm     93 % 0.00 in
01:22 65.1 °F 63.0 °F 29.97 in Calm     93 % 0.00 in
01:27 65.1 °F 63.0 °F 29.97 in Calm     93 % 0.00 in
01:32 64.9 °F 62.9 °F 29.98 in Calm     93 % 0.00 in
01:37 64.9 °F 62.9 °F 29.98 in Calm     93 % 0.00 in
01:42 64.8 °F 63.0 °F 29.98 in Calm     94 % 0.00 in
01:47 64.8 °F 63.0 °F 29.97 in Calm     94 % 0.00 in
01:52 64.6 °F 62.8 °F 29.97 in Calm     94 % 0.00 in
01:57 64.6 °F 62.8 °F 29.97 in Calm     94 % 0.00 in
02:02 64.4 °F 62.7 °F 29.98 in Calm     94 % 0.00 in
02:07 64.2 °F 62.5 °F 29.98 in Calm     94 % 0.00 in
02:12 64.2 °F 62.5 °F 29.98 in Calm     94 % 0.00 in
02:17 64.2 °F 62.5 °F 29.98 in Calm     94 % 0.00 in
02:22 64.2 °F 62.5 °F 29.97 in Calm     94 % 0.00 in
02:27 64.2 °F 62.5 °F 29.97 in Calm     94 % 0.00 in
02:32 64.2 °F 62.5 °F 29.97 in Calm     94 % 0.00 in
02:37 64.0 °F 62.3 °F 29.97 in Calm     94 % 0.00 in
02:42 64.0 °F 62.3 °F 29.97 in Calm     94 % 0.00 in
02:47 63.7 °F 62.0 °F 29.97 in Calm     94 % 0.00 in
02:52 63.7 °F 62.0 °F 29.97 in Calm     94 % 0.00 in
02:57 63.5 °F 61.8 °F 29.97 in Calm     94 % 0.00 in
03:02 63.5 °F 61.8 °F 29.97 in Calm     94 % 0.00 in
03:07 63.5 °F 61.8 °F 29.96 in Calm     94 % 0.00 in
03:12 63.5 °F 61.8 °F 29.96 in Calm     94 % 0.00 in
03:17 63.5 °F 61.8 °F 29.96 in Calm     94 % 0.00 in
03:22 63.3 °F 61.6 °F 29.97 in Calm     94 % 0.00 in
03:32 63.3 °F 61.6 °F 29.97 in Calm     94 % 0.00 in
03:37 63.3 °F 61.6 °F 29.97 in Calm     94 % 0.00 in
03:42 63.1 °F 61.4 °F 29.97 in Calm     94 % 0.00 in
03:47 63.1 °F 61.4 °F 29.97 in Calm     94 % 0.00 in
03:52 63.1 °F 61.4 °F 29.96 in Calm     94 % 0.00 in
03:57 63.1 °F 61.4 °F 29.96 in Calm     94 % 0.00 in
04:02 63.1 °F 61.4 °F 29.97 in Calm     94 % 0.00 in
04:07 63.0 °F 61.2 °F 29.96 in Calm     94 % 0.00 in
04:12 63.0 °F 61.2 °F 29.97 in Calm     94 % 0.00 in
04:17 62.8 °F 61.1 °F 29.97 in Calm     94 % 0.00 in
04:22 62.6 °F 60.9 °F 29.97 in Calm     94 % 0.00 in
04:27 62.4 °F 60.7 °F 29.97 in Calm     94 % 0.00 in
04:32 62.4 °F 60.7 °F 29.97 in Calm     94 % 0.00 in
04:37 62.2 °F 60.8 °F 29.97 in Calm     95 % 0.00 in
04:42 62.2 °F 60.8 °F 29.98 in Calm     95 % 0.00 in
04:47 62.2 °F 60.8 °F 29.98 in Calm     95 % 0.00 in
04:52 62.2 °F 60.8 °F 29.98 in Calm     95 % 0.00 in
04:57 62.1 °F 60.6 °F 29.98 in Calm     95 % 0.00 in
05:02 62.1 °F 60.6 °F 29.99 in Calm     95 % 0.00 in
05:07 62.1 °F 60.6 °F 29.99 in Calm     95 % 0.00 in
05:12 62.1 °F 60.6 °F 29.99 in Calm     95 % 0.00 in
05:17 62.1 °F 60.6 °F 29.99 in Calm     95 % 0.00 in
05:22 62.1 °F 60.6 °F 29.99 in Calm     95 % 0.00 in
05:27 61.9 °F 60.4 °F 29.99 in Calm     95 % 0.00 in
05:32 61.9 °F 60.4 °F 29.99 in Calm     95 % 0.00 in
05:37 62.1 °F 60.6 °F 29.99 in Calm     95 % 0.00 in
05:42 62.1 °F 60.6 °F 30.00 in Calm     95 % 0.00 in
05:48 62.2 °F 60.8 °F 30.00 in Calm     95 % 0.00 in
05:53 62.2 °F 60.8 °F 30.00 in Calm     95 % 0.00 in
05:58 62.2 °F 60.8 °F 30.00 in Calm     95 % 0.00 in
06:03 62.4 °F 61.0 °F 30.01 in Calm     95 % 0.00 in
06:08 62.4 °F 61.0 °F 30.01 in Calm     95 % 0.00 in
06:13 62.8 °F 61.3 °F 30.01 in Calm     95 % 0.00 in
06:18 63.1 °F 61.7 °F 30.01 in Calm     95 % 0.00 in
06:23 63.1 °F 61.7 °F 30.01 in Calm     95 % 0.00 in
06:28 63.3 °F 61.9 °F 30.02 in Calm     95 % 0.00 in
06:33 63.3 °F 61.9 °F 30.02 in Calm     95 % 0.00 in
06:38 63.5 °F 62.3 °F 30.02 in Calm     96 % 0.00 in
06:43 63.5 °F 62.3 °F 30.02 in Calm     96 % 0.00 in
06:48 63.5 °F 62.3 °F 30.02 in Calm     95 % 0.00 in
06:53 63.7 °F 62.2 °F 30.02 in Calm     95 % 0.00 in
06:58 63.7 °F 62.2 °F 30.02 in Calm     95 % 0.00 in
07:03 63.7 °F 62.2 °F 30.02 in Calm     95 % 0.00 in
07:08 64.2 °F 62.8 °F 30.02 in Calm     95 % 0.00 in
07:13 64.0 °F 62.6 °F 30.03 in Calm     95 % 0.00 in
07:18 64.0 °F 62.6 °F 30.03 in Calm     95 % 0.00 in
07:23 64.0 °F 62.6 °F 30.03 in Calm     95 % 0.00 in
07:33 63.7 °F 62.0 °F 30.03 in Calm     94 % 0.00 in
07:38 63.7 °F 62.0 °F 30.03 in Calm     94 % 0.00 in
07:43 63.7 °F 62.0 °F 30.03 in Calm     94 % 0.00 in
07:48 63.7 °F 62.0 °F 30.03 in Calm     94 % 0.00 in
07:53 63.9 °F 62.1 °F 30.03 in Calm     94 % 0.00 in
07:58 64.0 °F 62.3 °F 30.03 in Calm     94 % 0.00 in
08:03 64.0 °F 62.3 °F 30.03 in Calm     94 % 0.00 in
08:08 64.2 °F 62.5 °F 30.03 in Calm     94 % 0.00 in
08:13 64.2 °F 62.5 °F 30.03 in Calm     94 % 0.00 in
08:18 64.6 °F 62.8 °F 30.03 in Calm     94 % 0.00 in
08:23 64.8 °F 63.0 °F 30.04 in Calm     94 % 0.00 in
08:28 65.1 °F 63.3 °F 30.03 in Calm     94 % 0.00 in
08:31 65.1 °F 63.3 °F 30.03 in Calm     94 % 0.00 in
08:36 65.8 °F 63.8 °F 30.03 in Calm     94 % 0.00 in
08:41 66.4 °F 64.5 °F 30.03 in Calm     94 % 0.00 in
08:46 67.3 °F 65.1 °F 30.03 in Calm     93 % 0.00 in
08:51 67.6 °F 65.2 °F 30.04 in Calm     92 % 0.00 in
08:52 67.8 °F 65.4 °F 30.04 in Calm     92 % 0.00 in
08:57 68.4 °F 65.6 °F 30.04 in Calm     91 % 0.00 in
09:02 68.7 °F 65.7 °F 30.04 in Calm     90 % 0.00 in
09:07 69.1 °F 65.7 °F 30.04 in Calm     89 % 0.00 in
09:12 69.4 °F 65.7 °F 30.04 in Calm     88 % 0.00 in
09:17 70.0 °F 65.9 °F 30.05 in Calm     87 % 0.00 in
09:22 70.5 °F 66.1 °F 30.04 in Calm     86 % 0.00 in
09:27 70.7 °F 65.9 °F 30.04 in Calm     85 % 0.00 in
09:32 71.2 °F 66.5 °F 30.04 in Calm     85 % 0.00 in
09:37 71.4 °F 66.3 °F 30.04 in Calm     84 % 0.00 in
09:42 71.6 °F 66.1 °F 30.04 in Calm     83 % 0.00 in
09:47 71.8 °F 66.3 °F 30.04 in Calm     83 % 0.00 in
09:52 72.0 °F 66.5 °F 30.04 in Calm     83 % 0.00 in
09:57 72.3 °F 66.5 °F 30.04 in Calm     82 % 0.00 in
10:02 72.5 °F 66.7 °F 30.04 in Calm     82 % 0.00 in
10:07 72.7 °F 66.5 °F 30.04 in Calm     81 % 0.00 in
10:12 73.2 °F 67.1 °F 30.04 in Calm     81 % 0.00 in
10:17 73.2 °F 66.7 °F 30.04 in Calm     80 % 0.00 in
10:22 73.6 °F 67.1 °F 30.04 in Calm     80 % 0.00 in
10:27 73.9 °F 67.5 °F 30.03 in Calm     80 % 0.00 in
10:32 74.1 °F 67.6 °F 30.03 in Calm     80 % 0.00 in
10:37 74.1 °F 67.2 °F 30.03 in Calm     79 % 0.00 in
10:42 74.5 °F 67.6 °F 30.04 in Calm     79 % 0.00 in
10:47 74.7 °F 67.4 °F 30.04 in Calm     78 % 0.00 in
10:52 74.8 °F 67.6 °F 30.03 in Calm     78 % 0.00 in
10:57 75.0 °F 67.4 °F 30.03 in Calm     77 % 0.00 in
11:02 75.2 °F 67.5 °F 30.03 in Calm     77 % 0.00 in
11:07 75.4 °F 67.7 °F 30.03 in Calm     77 % 0.00 in
11:12 75.6 °F 67.9 °F 30.03 in Calm     77 % 0.00 in
11:17 75.9 °F 67.8 °F 30.03 in Calm     76 % 0.00 in
11:22 76.1 °F 68.0 °F 30.03 in Calm     76 % 0.00 in
11:27 76.6 °F 67.7 °F 30.03 in Calm     74 % 0.00 in
11:32 77.0 °F 68.1 °F 30.04 in Calm     74 % 0.00 in
11:37 77.4 °F 68.0 °F 30.03 in Calm     73 % 0.00 in
11:42 77.7 °F 68.4 °F 30.03 in Calm     73 % 0.00 in
11:47 78.1 °F 68.3 °F 30.03 in Calm     72 % 0.00 in
11:52 78.4 °F 68.2 °F 30.03 in Calm     71 % 0.00 in
11:57 78.4 °F 68.2 °F 30.02 in Calm     71 % 0.00 in
12:02 78.6 °F 68.4 °F 30.03 in Calm     71 % 0.00 in
12:07 79.0 °F 68.8 °F 30.02 in Calm     71 % 0.00 in
12:12 79.2 °F 68.5 °F 30.02 in Calm     70 % 0.00 in
12:14 79.2 °F 68.5 °F 30.02 in Calm     70 % 0.00 in
12:19 79.3 °F 68.3 °F 30.02 in Calm     69 % 0.00 in
12:24 79.7 °F 68.2 °F 30.02 in Calm     68 % 0.00 in
12:29 80.2 °F 68.7 °F 30.02 in Calm     68 % 0.00 in
12:34 80.6 °F 69.1 °F 30.02 in Calm     68 % 0.00 in
12:39 80.8 °F 68.8 °F 30.01 in Calm     67 % 0.00 in
12:44 81.0 °F 69.4 °F 30.02 in Calm     68 % 0.00 in
12:49 81.0 °F 68.5 °F 30.02 in Calm     66 % 0.00 in
12:54 81.0 °F 68.5 °F 30.02 in Calm     66 % 0.00 in
12:59 81.1 °F 68.2 °F 30.02 in Calm     65 % 0.00 in
13:04 81.1 °F 67.3 °F 30.01 in Calm     63 % 0.00 in
13:09 81.5 °F 67.6 °F 30.01 in Calm     63 % 0.00 in
13:14 81.7 °F 67.4 °F 30.01 in Calm     62 % 0.00 in
13:19 81.7 °F 67.4 °F 30.01 in Calm     62 % 0.00 in
13:24 82.0 °F 67.2 °F 30.01 in Calm     61 % 0.00 in
13:29 82.0 °F 67.7 °F 30.01 in Calm     62 % 0.00 in
13:34 82.4 °F 67.6 °F 30.01 in Calm     61 % 0.00 in
13:39 82.2 °F 67.4 °F 30.01 in Calm     61 % 0.00 in
13:44 82.2 °F 67.8 °F 30.01 in Calm     62 % 0.00 in
13:49 82.0 °F 67.2 °F 30.01 in Calm     61 % 0.00 in
13:54 82.0 °F 67.2 °F 30.01 in Calm     61 % 0.00 in
13:59 82.2 °F 66.9 °F 30.01 in Calm     60 % 0.00 in
14:04 82.2 °F 66.9 °F 30.01 in Calm     60 % 0.00 in
14:09 82.6 °F 67.3 °F 30.00 in Calm     60 % 0.00 in
14:14 82.6 °F 67.3 °F 30.00 in Calm     60 % 0.00 in
14:19 82.6 °F 67.7 °F 30.01 in Calm     61 % 0.00 in
14:24 82.4 °F 67.1 °F 30.01 in Calm     60 % 0.00 in
14:29 82.2 °F 67.4 °F 30.01 in Calm     61 % 0.00 in
14:34 81.7 °F 67.4 °F 30.01 in Calm     62 % 0.00 in
14:39 81.3 °F 67.5 °F 30.01 in Calm     63 % 0.00 in
14:44 81.3 °F 67.5 °F 30.00 in Calm     63 % 0.00 in
14:49 81.3 °F 67.9 °F 30.01 in Calm     64 % 0.00 in
14:54 81.3 °F 67.9 °F 30.01 in Calm     64 % 0.00 in
14:59 81.5 °F 67.6 °F 30.01 in Calm     63 % 0.00 in
15:04 81.5 °F 67.6 °F 30.00 in Calm     63 % 0.00 in
15:09 81.5 °F 67.6 °F 30.01 in Calm     63 % 0.00 in
15:14 81.7 °F 68.3 °F 30.00 in Calm     64 % 0.00 in
15:19 81.7 °F 67.4 °F 30.00 in Calm     62 % 0.00 in
15:24 82.0 °F 67.7 °F 30.00 in Calm     62 % 0.00 in
15:29 82.2 °F 67.8 °F 30.00 in Calm     62 % 0.00 in
15:34 82.6 °F 67.7 °F 30.00 in Calm     61 % 0.00 in
15:39 82.6 °F 67.7 °F 30.00 in Calm     61 % 0.00 in
15:44 82.6 °F 67.3 °F 30.00 in Calm     60 % 0.00 in
15:49 82.6 °F 67.3 °F 30.00 in Calm     60 % 0.00 in
15:54 82.2 °F 66.9 °F 29.99 in Calm     60 % 0.00 in
15:59 82.2 °F 66.9 °F 29.99 in Calm     60 % 0.00 in
16:04 82.4 °F 66.6 °F 29.99 in Calm     59 % 0.00 in
16:09 82.6 °F 66.8 °F 29.99 in Calm     59 % 0.00 in
16:14 82.6 °F 66.8 °F 29.99 in Calm     59 % 0.00 in
16:19 82.6 °F 66.8 °F 29.99 in Calm     59 % 0.00 in
16:24 82.4 °F 66.6 °F 29.98 in Calm     59 % 0.00 in
16:29 82.2 °F 66.9 °F 29.99 in Calm     60 % 0.00 in
16:34 82.2 °F 66.9 °F 29.99 in Calm     60 % 0.00 in
16:39 82.2 °F 66.9 °F 29.99 in Calm     60 % 0.00 in
16:44 82.2 °F 66.9 °F 29.99 in Calm     60 % 0.00 in
16:49 82.2 °F 66.9 °F 29.99 in Calm     60 % 0.00 in
16:54 82.2 °F 66.9 °F 29.99 in Calm     60 % 0.00 in
16:59 82.2 °F 66.9 °F 29.99 in Calm     60 % 0.00 in
17:04 82.2 °F 66.9 °F 29.99 in Calm     60 % 0.00 in
17:09 81.9 °F 66.6 °F 29.99 in Calm     60 % 0.00 in
17:11 81.7 °F 66.5 °F 29.99 in Calm     60 % 0.00 in
17:16 81.7 °F 65.9 °F 29.99 in Calm     59 % 0.00 in
17:21 81.5 °F 65.8 °F 30.00 in Calm     59 % 0.00 in
17:26 81.3 °F 65.6 °F 29.99 in Calm     59 % 0.00 in
17:31 81.3 °F 65.6 °F 30.00 in Calm     59 % 0.00 in
17:36 81.1 °F 66.0 °F 30.00 in Calm     60 % 0.00 in
17:41 81.0 °F 66.3 °F 30.00 in Calm     61 % 0.00 in
17:46 80.8 °F 66.1 °F 30.00 in Calm     61 % 0.00 in
17:56 80.2 °F 66.0 °F 30.00 in Calm     62 % 0.00 in
18:01 79.9 °F 66.1 °F 30.00 in Calm     63 % 0.00 in
18:02 79.9 °F 66.1 °F 30.00 in Calm     63 % 0.00 in
18:07 79.5 °F 66.3 °F 30.00 in Calm     64 % 0.00 in
18:12 79.3 °F 66.5 °F 29.99 in Calm     65 % 0.00 in
18:13 79.3 °F 66.5 °F 29.99 in Calm     65 % 0.00 in
18:18 79.3 °F 66.5 °F 29.99 in Calm     65 % 0.00 in
18:23 79.2 °F 66.8 °F 29.99 in Calm     66 % 0.00 in
18:28 79.0 °F 66.6 °F 30.00 in Calm     66 % 0.00 in
18:33 78.8 °F 66.5 °F 29.99 in Calm     66 % 0.00 in
18:38 78.6 °F 66.7 °F 29.99 in Calm     67 % 0.00 in
18:43 78.4 °F 67.0 °F 29.99 in Calm     68 % 0.00 in
18:48 78.1 °F 66.7 °F 29.99 in Calm     68 % 0.00 in
18:53 77.7 °F 66.8 °F 30.00 in Calm     69 % 0.00 in
18:58 77.4 °F 66.4 °F 29.99 in Calm     69 % 0.00 in
19:03 77.0 °F 66.6 °F 30.00 in Calm     70 % 0.00 in
19:08 76.6 °F 66.6 °F 30.00 in Calm     71 % 0.00 in
19:13 76.3 °F 66.6 °F 30.00 in Calm     72 % 0.00 in
19:18 75.9 °F 66.6 °F 30.00 in Calm     73 % 0.00 in
19:23 75.7 °F 66.5 °F 30.00 in Calm     73 % 0.00 in
19:28 75.4 °F 66.5 °F 30.00 in Calm     74 % 0.00 in
19:33 75.0 °F 66.6 °F 30.00 in Calm     75 % 0.00 in
19:38 74.8 °F 66.4 °F 30.00 in Calm     75 % 0.00 in
19:43 74.5 °F 66.8 °F 30.00 in Calm     77 % 0.00 in
19:48 74.1 °F 66.9 °F 30.00 in Calm     78 % 0.00 in
19:53 73.8 °F 66.9 °F 30.01 in Calm     79 % 0.00 in
19:58 73.2 °F 66.7 °F 30.01 in Calm     80 % 0.00 in
19:59 73.2 °F 66.7 °F 30.01 in Calm     80 % 0.00 in
20:04 73.0 °F 66.6 °F 30.01 in Calm     80 % 0.00 in
20:09 72.7 °F 66.5 °F 30.01 in Calm     81 % 0.00 in
20:14 72.5 °F 66.4 °F 30.01 in Calm     81 % 0.00 in
20:19 72.3 °F 66.2 °F 30.01 in Calm     81 % 0.00 in
20:24 72.3 °F 66.5 °F 30.00 in Calm     82 % 0.00 in
20:29 72.1 °F 66.3 °F 30.01 in Calm     82 % 0.00 in
20:34 72.1 °F 66.3 °F 30.01 in Calm     82 % 0.00 in
20:39 72.0 °F 66.5 °F 30.01 in Calm     83 % 0.00 in
20:44 71.8 °F 66.3 °F 30.01 in Calm     83 % 0.00 in
20:49 71.8 °F 66.7 °F 30.01 in Calm     84 % 0.00 in
20:54 71.4 °F 66.3 °F 30.01 in Calm     84 % 0.00 in
20:59 71.4 °F 66.3 °F 30.01 in Calm     84 % 0.00 in
21:04 71.2 °F 66.5 °F 30.01 in Calm     85 % 0.00 in
21:09 71.2 °F 66.5 °F 30.01 in Calm     85 % 0.00 in
21:14 70.9 °F 66.1 °F 30.01 in Calm     85 % 0.00 in
21:19 70.9 °F 66.1 °F 30.01 in Calm     85 % 0.00 in
21:24 70.7 °F 66.3 °F 30.01 in Calm     86 % 0.00 in
21:29 70.5 °F 66.3 °F 30.01 in Calm     86 % 0.00 in
21:34 70.5 °F 66.4 °F 30.01 in Calm     87 % 0.00 in
21:39 70.3 °F 66.3 °F 30.01 in Calm     87 % 0.00 in
21:44 70.2 °F 66.1 °F 30.01 in Calm     87 % 0.00 in
21:49 70.0 °F 65.9 °F 30.01 in Calm     87 % 0.00 in
21:54 70.0 °F 66.2 °F 30.01 in Calm     88 % 0.00 in
21:59 69.8 °F 66.1 °F 30.01 in Calm     88 % 0.00 in
22:04 69.6 °F 65.9 °F 30.01 in Calm     88 % 0.00 in
22:09 69.6 °F 65.9 °F 30.02 in Calm     88 % 0.00 in
22:14 69.4 °F 66.0 °F 30.01 in Calm     89 % 0.00 in
22:19 69.4 °F 66.0 °F 30.02 in Calm     89 % 0.00 in
22:24 69.4 °F 66.0 °F 30.02 in Calm     89 % 0.00 in
22:29 69.4 °F 66.0 °F 30.02 in Calm     89 % 0.00 in
22:34 69.3 °F 65.9 °F 30.02 in Calm     89 % 0.00 in
Burke, Virginia, USA
Compliments of Weather Underground - 3 mb